Time;durP1;ratioP1;P1;durP2;ratioP2;P2;SDS_P1;SDS_P2;PMS_P1;PMS_P2;Temp;Humidity;BMP_temperature;BMP_pressure;BME280_temperature;BME280_humidity;BME280_pressure;Samples;Min_cycle;Max_cycle;Signal;HPM_P1;HPM_P2
2022/10/03 00:01:20;;;;;;;19.95;9.43;;;12.90;99.90;;;;;;5073000;28;20160;-77
2022/10/03 00:03:59;;;;;;;13.75;8.73;;;12.90;99.90;;;;;;5072033;28;20168;-77
2022/10/03 00:07:01;;;;;;;14.90;7.95;;;12.80;99.90;;;;;;5073311;28;20179;-77
2022/10/03 00:09:55;;;;;;;13.35;7.07;;;12.80;99.90;;;;;;5072650;28;20196;-77
2022/10/03 00:12:46;;;;;;;11.20;5.30;;;12.80;99.90;;;;;;5072859;28;20313;-77
2022/10/03 00:15:25;;;;;;;14.15;6.30;;;12.70;99.90;;;;;;5073086;28;20214;-77
2022/10/03 00:18:02;;;;;;;9.50;4.03;;;12.70;99.90;;;;;;5072613;28;20299;-77
2022/10/03 00:20:51;;;;;;;9.60;4.53;;;12.70;99.90;;;;;;5072594;28;20594;-76
2022/10/03 00:23:48;;;;;;;7.97;3.95;;;12.60;99.90;;;;;;5072523;28;20168;-77
2022/10/03 00:26:48;;;;;;;10.00;4.30;;;12.60;99.90;;;;;;5072800;28;20169;-76
2022/10/03 00:30:11;;;;;;;10.60;3.60;;;12.60;99.90;;;;;;5072308;28;20200;-77
2022/10/03 00:33:01;;;;;;;6.45;3.88;;;12.50;99.90;;;;;;5070852;28;20188;-76
2022/10/03 00:35:48;;;;;;;8.52;3.53;;;12.50;99.90;;;;;;5077450;28;20179;-76
2022/10/03 00:38:35;;;;;;;9.30;3.05;;;12.50;99.90;;;;;;5054634;28;20184;-76
2022/10/03 00:41:30;;;;;;;15.40;4.05;;;12.40;99.90;;;;;;5072211;28;20552;-77
2022/10/03 00:44:15;;;;;;;13.60;3.58;;;12.40;99.90;;;;;;5072420;28;20648;-77
2022/10/03 00:47:02;;;;;;;8.43;3.55;;;12.40;99.90;;;;;;5072485;28;20172;-77
2022/10/03 00:49:47;;;;;;;10.55;2.78;;;12.40;99.90;;;;;;5071829;28;20196;-76
2022/10/03 00:52:31;;;;;;;11.27;3.38;;;12.40;99.90;;;;;;5072030;28;20654;-76
2022/10/03 00:55:22;;;;;;;7.15;2.25;;;12.30;99.90;;;;;;5071992;28;20172;-76
2022/10/03 00:58:02;;;;;;;10.07;2.55;;;12.30;99.90;;;;;;5070572;28;20263;-75
2022/10/03 01:00:30;;;;;;;9.02;3.60;;;12.30;99.90;;;;;;5071701;28;20168;-76
2022/10/03 01:03:26;;;;;;;12.63;3.05;;;12.30;99.90;;;;;;5071797;28;20171;-75
2022/10/03 01:06:18;;;;;;;7.65;2.60;;;12.30;99.90;;;;;;5071917;28;20226;-76
2022/10/03 01:09:10;;;;;;;11.02;2.92;;;12.30;99.90;;;;;;5071764;28;20572;-76
2022/10/03 01:11:59;;;;;;;6.40;2.70;;;12.30;99.90;;;;;;5068278;28;20168;-76
2022/10/03 01:14:46;;;;;;;9.15;3.08;;;12.30;99.90;;;;;;5071821;28;20251;-76
2022/10/03 01:17:36;;;;;;;8.30;3.63;;;12.30;99.90;;;;;;5071628;28;20563;-76
2022/10/03 01:20:20;;;;;;;7.22;2.50;;;12.30;99.90;;;;;;5103845;23;20230;-78
2022/10/03 01:22:58;;;;;;;6.45;2.55;;;12.20;99.90;;;;;;5091689;28;20155;-78
2022/10/03 01:25:38;;;;;;;9.13;3.47;;;12.30;99.90;;;;;;5073723;28;20626;-78
2022/10/03 01:31:16;;;;;;;10.13;3.10;;;12.30;99.90;;;;;;5053120;28;20188;-78
2022/10/03 01:33:59;;;;;;;10.52;2.90;;;12.30;99.90;;;;;;5071248;28;20233;-78
2022/10/03 01:37:00;;;;;;;13.00;3.50;;;12.30;99.90;;;;;;5036644;28;20176;-78
2022/10/03 01:39:57;;;;;;;9.45;3.40;;;12.30;99.90;;;;;;5067065;28;20749;-78
2022/10/03 01:42:34;;;;;;;13.85;3.65;;;12.30;99.90;;;;;;5072064;28;20171;-78
2022/10/03 01:45:22;;;;;;;10.85;3.50;;;12.20;99.90;;;;;;5056484;28;20164;-78
2022/10/03 01:48:01;;;;;;;11.95;3.30;;;12.20;99.90;;;;;;5053475;28;20164;-78
2022/10/03 01:50:43;;;;;;;9.05;4.53;;;12.20;99.90;;;;;;5071017;28;20337;-78
2022/10/03 01:53:30;;;;;;;10.13;4.00;;;12.20;99.90;;;;;;5070997;28;20160;-78
2022/10/03 01:56:20;;;;;;;9.13;3.80;;;12.20;99.90;;;;;;5053493;28;20261;-78
2022/10/03 01:58:56;;;;;;;8.57;3.35;;;12.20;99.90;;;;;;5053607;28;20180;-78
2022/10/03 02:01:34;;;;;;;9.90;3.13;;;12.20;99.90;;;;;;5070859;28;20184;-77
2022/10/03 02:04:13;;;;;;;10.68;4.13;;;12.20;99.90;;;;;;5071176;28;20168;-77
2022/10/03 02:06:48;;;;;;;7.00;3.05;;;12.20;99.90;;;;;;5053288;28;20172;-77
2022/10/03 02:09:38;;;;;;;10.85;4.50;;;12.20;99.90;;;;;;5052709;28;20260;-78
2022/10/03 02:12:12;;;;;;;7.07;2.55;;;12.20;99.90;;;;;;5069790;28;20233;-78
2022/10/03 02:15:04;;;;;;;13.43;4.03;;;12.20;99.90;;;;;;5071240;28;20252;-78
2022/10/03 02:17:44;;;;;;;7.82;3.97;;;12.20;99.90;;;;;;5053434;28;20168;-78
2022/10/03 02:20:27;;;;;;;9.02;3.90;;;12.20;99.90;;;;;;5073298;28;20208;-77
2022/10/03 02:22:56;;;;;;;9.85;3.33;;;12.20;99.90;;;;;;5054537;28;20192;-77
2022/10/03 02:25:50;;;;;;;9.38;3.22;;;12.20;99.90;;;;;;5053083;28;20259;-78
2022/10/03 02:28:58;;;;;;;6.68;2.70;;;12.20;99.90;;;;;;5071002;28;20180;-78
2022/10/03 02:31:38;;;;;;;7.68;2.78;;;12.20;99.90;;;;;;5069449;28;20183;-77
2022/10/03 02:34:22;;;;;;;6.70;2.60;;;12.20;99.90;;;;;;5052886;28;20263;-77
2022/10/03 02:37:34;;;;;;;9.85;3.75;;;12.20;99.90;;;;;;5036524;28;20168;-77
2022/10/03 02:40:28;;;;;;;10.55;3.35;;;12.10;99.90;;;;;;5052594;28;20215;-77
2022/10/03 02:43:24;;;;;;;5.78;2.30;;;12.10;99.90;;;;;;5070809;28;20175;-77
2022/10/03 02:46:35;;;;;;;4.93;2.30;;;12.10;99.90;;;;;;5070959;28;20667;-77
2022/10/03 02:49:40;;;;;;;3.97;2.40;;;12.10;99.90;;;;;;5074290;28;20203;-77
2022/10/03 02:52:35;;;;;;;5.68;2.55;;;12.10;99.90;;;;;;5042213;28;20581;-77
2022/10/03 02:55:04;;;;;;;7.68;2.30;;;12.00;99.90;;;;;;5056658;28;20225;-77
2022/10/03 02:57:44;;;;;;;9.82;3.33;;;12.00;99.90;;;;;;5077961;28;20240;-77
2022/10/03 03:00:20;;;;;;;6.15;2.70;;;11.90;99.90;;;;;;5039714;28;20192;-77
2022/10/03 03:03:30;;;;;;;5.45;2.40;;;11.90;99.90;;;;;;5039864;28;20579;-77
2022/10/03 03:06:29;;;;;;;7.50;2.42;;;11.90;99.90;;;;;;5074305;28;20168;-77
2022/10/03 03:09:28;;;;;;;7.47;2.60;;;11.90;99.90;;;;;;5056307;28;20208;-78
2022/10/03 03:12:22;;;;;;;7.90;3.00;;;11.90;99.90;;;;;;5056473;28;20235;-78
2022/10/03 03:15:03;;;;;;;9.23;4.15;;;11.80;99.90;;;;;;5074387;28;20525;-77
2022/10/03 03:17:55;;;;;;;8.20;3.30;;;11.80;99.90;;;;;;5056427;28;20161;-78
2022/10/03 03:20:31;;;;;;;9.75;3.30;;;11.80;99.90;;;;;;5073662;28;20246;-78
2022/10/03 03:23:28;;;;;;;7.70;3.25;;;11.80;99.90;;;;;;5074244;28;20168;-77
2022/10/03 03:25:54;;;;;;;7.82;3.28;;;11.80;99.90;;;;;;5072826;28;20268;-77
2022/10/03 03:28:59;;;;;;;11.00;3.70;;;11.80;99.90;;;;;;5056436;28;20592;-78
2022/10/03 03:31:49;;;;;;;7.38;3.10;;;11.80;99.90;;;;;;5073892;28;20176;-77
2022/10/03 03:34:29;;;;;;;8.82;4.22;;;11.80;99.90;;;;;;5075959;28;20160;-77
2022/10/03 03:37:01;;;;;;;9.55;3.58;;;11.80;99.90;;;;;;5056466;28;20164;-78
2022/10/03 03:39:27;;;;;;;7.40;4.65;;;11.80;99.90;;;;;;5055663;28;20199;-78
2022/10/03 03:42:04;;;;;;;7.47;3.63;;;11.80;99.90;;;;;;5055790;28;20678;-77
2022/10/03 03:44:48;;;;;;;6.05;3.65;;;11.80;99.90;;;;;;5055843;28;20247;-77
2022/10/03 03:47:53;;;;;;;13.48;4.60;;;11.80;99.90;;;;;;5073690;28;20168;-77
2022/10/03 03:50:44;;;;;;;10.85;4.00;;;11.80;99.90;;;;;;5055243;28;20685;-77
2022/10/03 03:53:46;;;;;;;8.95;3.85;;;11.80;99.90;;;;;;5055515;28;20168;-77
2022/10/03 03:56:30;;;;;;;10.27;3.70;;;11.80;99.90;;;;;;5055577;28;20229;-78
2022/10/03 03:59:18;;;;;;;9.32;4.72;;;11.80;99.90;;;;;;5055036;28;20191;-78
2022/10/03 04:01:59;;;;;;;8.23;3.75;;;11.80;99.90;;;;;;5073208;28;20200;-78
2022/10/03 04:04:44;;;;;;;6.50;3.60;;;11.80;99.90;;;;;;5073255;28;20632;-78
2022/10/03 04:07:30;;;;;;;6.97;4.13;;;11.80;99.90;;;;;;5055640;28;20168;-78
2022/10/03 04:10:13;;;;;;;5.97;3.65;;;11.70;99.90;;;;;;5073072;28;20195;-78
2022/10/03 04:13:17;;;;;;;8.07;4.57;;;11.70;99.90;;;;;;5057722;28;20168;-78
2022/10/03 04:16:09;;;;;;;10.23;4.32;;;11.70;99.90;;;;;;5038443;28;20176;-78
2022/10/03 04:19:02;;;;;;;8.75;3.70;;;11.70;99.90;;;;;;5055074;28;20168;-78
2022/10/03 04:21:50;;;;;;;12.02;3.85;;;11.60;99.90;;;;;;5054585;28;20175;-78
2022/10/03 04:24:35;;;;;;;5.20;3.35;;;11.60;99.90;;;;;;5055072;28;20172;-78
2022/10/03 04:27:26;;;;;;;4.78;3.80;;;11.60;99.90;;;;;;5055080;28;20665;-77
2022/10/03 04:30:34;;;;;;;6.50;4.03;;;11.60;99.90;;;;;;5054356;28;20200;-77
2022/10/03 04:33:08;;;;;;;9.43;3.10;;;11.60;99.90;;;;;;4994116;28;20252;-77
2022/10/03 04:36:08;;;;;;;7.45;3.20;;;11.60;99.90;;;;;;5081735;28;20737;-77
2022/10/03 04:39:15;;;;;;;8.40;3.28;;;11.60;99.90;;;;;;5054661;28;20211;-77
2022/10/03 04:41:49;;;;;;;12.68;3.65;;;11.60;99.90;;;;;;5052205;28;20568;-77
2022/10/03 04:44:53;;;;;;;8.10;3.70;;;11.60;99.90;;;;;;5054606;28;20168;-77
2022/10/03 04:47:30;;;;;;;5.43;3.08;;;11.60;99.90;;;;;;5072664;28;20175;-77
2022/10/03 04:50:12;;;;;;;10.55;3.90;;;11.60;99.90;;;;;;5058106;28;20253;-77
2022/10/03 04:52:55;;;;;;;16.20;3.85;;;11.60;99.90;;;;;;5054331;28;20164;-77
2022/10/03 04:55:45;;;;;;;7.25;3.08;;;11.60;99.90;;;;;;5072190;28;20203;-78
2022/10/03 04:58:19;;;;;;;7.70;2.97;;;11.60;99.90;;;;;;5037676;28;20165;-77
2022/10/03 05:00:54;;;;;;;12.57;5.35;;;11.60;99.90;;;;;;5071613;28;20183;-78
2022/10/03 05:03:41;;;;;;;9.93;4.20;;;11.60;99.90;;;;;;5072170;28;20721;-78
2022/10/03 05:06:47;;;;;;;9.10;4.03;;;11.60;99.90;;;;;;5054226;28;20310;-78
2022/10/03 05:09:36;;;;;;;11.25;4.40;;;11.60;99.90;;;;;;5052672;28;20675;-78
2022/10/03 05:12:15;;;;;;;11.10;3.90;;;11.70;99.90;;;;;;5037391;28;20172;-77
2022/10/03 05:14:48;;;;;;;9.38;4.38;;;11.70;99.90;;;;;;5037818;28;20183;-77
2022/10/03 05:17:29;;;;;;;9.73;3.05;;;11.70;99.90;;;;;;5071997;28;20210;-77
2022/10/03 05:20:19;;;;;;;7.35;2.72;;;11.80;99.90;;;;;;5053553;28;20199;-78
2022/10/03 05:23:22;;;;;;;5.78;3.17;;;11.80;99.90;;;;;;5037041;28;20187;-77
2022/10/03 05:26:05;;;;;;;4.57;2.70;;;11.90;99.90;;;;;;5056959;28;20207;-78
2022/10/03 05:29:04;;;;;;;6.53;2.80;;;11.90;99.90;;;;;;5071685;28;20532;-78
2022/10/03 05:31:44;;;;;;;4.63;2.03;;;12.00;99.90;;;;;;5053337;28;20198;-78
2022/10/03 05:34:31;;;;;;;6.45;3.10;;;12.00;99.90;;;;;;5053483;28;20218;-78
2022/10/03 05:37:31;;;;;;;5.20;2.92;;;12.00;99.90;;;;;;5071770;28;20176;-78
2022/10/03 05:40:15;;;;;;;7.00;2.63;;;11.90;99.90;;;;;;5053413;28;20196;-78
2022/10/03 05:42:54;;;;;;;6.63;2.97;;;11.90;99.90;;;;;;5071272;28;20172;-78
2022/10/03 05:45:58;;;;;;;7.32;2.90;;;11.80;99.90;;;;;;5053580;28;20195;-77
2022/10/03 05:48:39;;;;;;;9.52;3.60;;;11.80;99.90;;;;;;5053743;28;20698;-78
2022/10/03 05:51:12;;;;;;;9.02;4.28;;;11.80;99.90;;;;;;5071036;28;20177;-78
2022/10/03 05:53:59;;;;;;;6.68;3.28;;;11.80;99.90;;;;;;5053645;28;20168;-78
2022/10/03 05:56:44;;;;;;;11.27;3.22;;;11.70;99.90;;;;;;5071503;28;20168;-78
2022/10/03 05:59:27;;;;;;;6.45;2.75;;;11.70;99.90;;;;;;5071534;28;20274;-78
2022/10/03 06:02:17;;;;;;;5.82;3.20;;;11.70;99.90;;;;;;5070362;28;20187;-78
2022/10/03 06:04:52;;;;;;;6.15;3.42;;;11.70;99.90;;;;;;5055982;28;20242;-77
2022/10/03 06:07:27;;;;;;;7.88;4.00;;;11.70;99.90;;;;;;5053421;28;20179;-77
2022/10/03 06:10:26;;;;;;;6.93;3.55;;;11.70;99.90;;;;;;5052821;28;20292;-78
2022/10/03 06:13:14;;;;;;;7.18;3.50;;;11.70;99.90;;;;;;5036830;28;20176;-78
2022/10/03 06:15:49;;;;;;;7.22;3.22;;;11.80;99.90;;;;;;5053400;28;20164;-78
2022/10/03 06:18:30;;;;;;;10.63;3.53;;;11.80;99.90;;;;;;5071238;28;20176;-78
2022/10/03 06:21:05;;;;;;;5.57;3.55;;;11.80;99.90;;;;;;5072231;28;20200;-78
2022/10/03 06:23:46;;;;;;;7.45;4.22;;;11.90;99.90;;;;;;5075065;28;20172;-78
2022/10/03 06:26:41;;;;;;;8.77;4.10;;;12.00;99.90;;;;;;5057287;28;20172;-78
2022/10/03 06:29:32;;;;;;;8.45;4.10;;;12.10;99.90;;;;;;5074716;28;20253;-75
2022/10/03 06:32:25;;;;;;;8.57;3.50;;;12.30;99.90;;;;;;5074727;28;20251;-77
2022/10/03 06:35:00;;;;;;;5.28;3.35;;;12.50;99.90;;;;;;5056896;28;20695;-78
2022/10/03 06:37:42;;;;;;;6.40;3.83;;;12.70;99.90;;;;;;5074861;28;20552;-76
2022/10/03 06:40:42;;;;;;;5.68;3.08;;;12.80;99.90;;;;;;5043864;28;20260;-76
2022/10/03 06:43:28;;;;;;;7.43;3.80;;;13.00;99.90;;;;;;5039957;28;20588;-78
2022/10/03 06:46:34;;;;;;;7.93;4.57;;;13.30;99.90;;;;;;5074470;28;20171;-76
2022/10/03 06:49:26;;;;;;;6.30;3.70;;;13.50;99.90;;;;;;5039770;28;20288;-77
2022/10/03 06:52:11;;;;;;;7.00;4.13;;;13.70;99.90;;;;;;5074403;28;20165;-77
2022/10/03 06:54:49;;;;;;;11.33;3.83;;;13.90;99.90;;;;;;5074398;28;20171;-77
2022/10/03 06:57:38;;;;;;;11.77;4.73;;;14.00;99.90;;;;;;5056053;28;20586;-76
2022/10/03 07:00:29;;;;;;;9.50;4.00;;;14.20;99.90;;;;;;5049755;28;20624;-76
2022/10/03 07:03:41;;;;;;;9.75;3.83;;;14.30;99.90;;;;;;5073945;28;20200;-76
2022/10/03 07:06:29;;;;;;;8.70;4.50;;;14.40;99.90;;;;;;5000615;28;20182;-76
2022/10/03 07:09:19;;;;;;;8.80;4.20;;;14.50;99.90;;;;;;5054071;28;20634;-76
2022/10/03 07:12:33;;;;;;;8.80;4.10;;;14.60;99.90;;;;;;5036252;28;20570;-76
2022/10/03 07:15:32;;;;;;;7.43;4.60;;;14.60;99.90;;;;;;5070034;28;21205;-77
2022/10/03 07:18:30;;;;;;;6.17;3.63;;;14.70;99.90;;;;;;5061196;28;20666;-77
2022/10/03 07:21:24;;;;;;;5.93;3.80;;;14.70;99.90;;;;;;5074237;28;20625;-78
2022/10/03 07:24:18;;;;;;;14.07;3.70;;;14.70;99.90;;;;;;5055926;28;20620;-78
2022/10/03 07:27:18;;;;;;;9.93;3.70;;;14.80;99.90;;;;;;5073995;28;20563;-78
2022/10/03 07:30:23;;;;;;;10.40;4.57;;;14.90;99.90;;;;;;5073274;28;20622;-76
2022/10/03 07:33:19;;;;;;;9.07;3.27;;;15.00;99.90;;;;;;5069389;28;20574;-76
2022/10/03 07:39:34;;;;;;;7.40;4.00;;;15.40;99.90;;;;;;5067860;28;20606;-75
2022/10/03 07:42:20;;;;;;;6.90;4.00;;;15.70;99.90;;;;;;5073556;28;20566;-75
2022/10/03 07:45:12;;;;;;;9.50;3.97;;;16.00;99.90;;;;;;5038655;28;21155;-75
2022/10/03 07:47:50;;;;;;;9.13;4.00;;;16.50;99.90;;;;;;5053576;28;20566;-77
2022/10/03 07:50:27;;;;;;;6.20;3.77;;;17.10;99.90;;;;;;5068655;28;20750;-78
2022/10/03 07:53:11;;;;;;;13.83;3.87;;;17.50;99.90;;;;;;5054083;28;20577;-78
2022/10/03 07:56:02;;;;;;;7.60;3.33;;;18.20;99.90;;;;;;5058858;28;20577;-79
2022/10/03 07:58:41;;;;;;;6.40;2.97;;;19.20;99.90;;;;;;5053405;28;20651;-79
2022/10/03 08:01:35;;;;;;;7.13;3.00;;;20.30;99.90;;;;;;5036447;28;20578;-79
2022/10/03 08:04:35;;;;;;;6.70;3.00;;;21.50;99.90;;;;;;5036528;28;20625;-79
2022/10/03 08:07:00;;;;;;;4.00;2.40;;;22.80;99.90;;;;;;5053289;28;20916;-79
2022/10/03 08:09:38;;;;;;;8.90;3.00;;;24.00;99.90;;;;;;5053066;28;20630;-79
2022/10/03 08:12:43;;;;;;;9.83;3.03;;;24.90;99.90;;;;;;5054939;28;20219;-79
2022/10/03 08:15:29;;;;;;;9.50;3.23;;;25.80;99.90;;;;;;5038423;28;20574;-75
2022/10/03 08:18:33;;;;;;;6.40;2.77;;;26.80;99.90;;;;;;5054683;28;20927;-75
2022/10/03 08:21:01;;;;;;;5.87;2.13;;;27.80;99.90;;;;;;5065282;28;20995;-75
2022/10/03 08:23:36;;;;;;;6.53;2.97;;;28.70;99.90;;;;;;5072596;28;20654;-76
2022/10/03 08:26:16;;;;;;;6.13;2.60;;;28.80;99.90;;;;;;5054634;28;20624;-75
2022/10/03 08:29:15;;;;;;;8.63;3.00;;;28.60;99.90;;;;;;5054587;28;20567;-75
2022/10/03 08:31:51;;;;;;;7.10;2.97;;;28.50;99.90;;;;;;5057944;28;20659;-75
2022/10/03 08:34:29;;;;;;;5.20;2.27;;;28.40;99.90;;;;;;5072861;28;20637;-77
2022/10/03 08:37:11;;;;;;;8.37;2.03;;;28.30;99.90;;;;;;5072515;28;20574;-77
2022/10/03 08:40:03;;;;;;;6.30;2.30;;;28.10;99.90;;;;;;5072206;28;20598;-77
2022/10/03 08:42:37;;;;;;;6.90;2.30;;;27.70;99.90;;;;;;5032318;28;21193;-77
2022/10/03 08:45:06;;;;;;;7.70;2.33;;;27.30;99.90;;;;;;5072899;28;20605;-77
2022/10/03 08:47:48;;;;;;;4.87;2.50;;;26.80;99.90;;;;;;5072597;28;20593;-77
2022/10/03 08:50:45;;;;;;;9.37;2.83;;;26.40;99.90;;;;;;5054063;28;20702;-76
2022/10/03 08:54:00;;;;;;;7.20;3.03;;;26.10;99.90;;;;;;5037685;28;21216;-76
2022/10/03 08:56:44;;;;;;;4.30;2.30;;;25.80;99.90;;;;;;5054405;28;20662;-77
2022/10/03 08:59:54;;;;;;;5.77;2.20;;;25.60;99.90;;;;;;5071862;28;20582;-76
2022/10/03 09:03:18;;;;;;;6.83;2.90;;;25.50;99.90;;;;;;5072111;28;20558;-77
2022/10/03 09:06:08;;;;;;;6.20;2.57;;;25.50;99.90;;;;;;5026356;28;20587;-76
2022/10/03 09:08:52;;;;;;;5.20;1.70;;;25.50;99.90;;;;;;5056036;28;20577;-77
2022/10/03 09:11:27;;;;;;;7.50;2.00;;;25.60;99.90;;;;;;5072479;28;20578;-76
2022/10/03 09:14:11;;;;;;;8.37;2.90;;;25.60;99.90;;;;;;5054098;28;20907;-76
2022/10/03 09:17:09;;;;;;;5.13;2.27;;;25.50;99.90;;;;;;5051953;28;20586;-76
2022/10/03 09:19:53;;;;;;;5.60;2.20;;;25.40;99.90;;;;;;5052591;28;20665;-76
2022/10/03 09:22:19;;;;;;;7.43;1.87;;;25.50;99.90;;;;;;5053884;28;20567;-76
2022/10/03 09:25:06;;;;;;;7.37;2.07;;;25.90;99.90;;;;;;5053706;28;20986;-76
2022/10/03 09:28:00;;;;;;;3.80;1.73;;;26.20;99.90;;;;;;5072114;28;20223;-76
2022/10/03 09:30:56;;;;;;;6.57;1.63;;;26.80;99.90;;;;;;5053900;28;20621;-76
2022/10/03 09:33:54;;;;;;;4.27;1.80;;;27.60;99.90;;;;;;5053932;28;20925;-79
2022/10/03 09:36:39;;;;;;;7.60;2.33;;;28.10;99.90;;;;;;5055068;28;20559;-76
2022/10/03 09:39:18;;;;;;;6.13;1.90;;;28.60;99.90;;;;;;5069515;28;21025;-76
2022/10/03 09:42:16;;;;;;;3.37;1.53;;;29.00;99.90;;;;;;5070192;28;20648;-77
2022/10/03 09:45:09;;;;;;;4.77;1.70;;;29.50;99.10;;;;;;5070139;28;20594;-79
2022/10/03 09:47:59;;;;;;;7.07;3.00;;;30.20;98.90;;;;;;5035978;28;20621;-78
2022/10/03 09:50:52;;;;;;;4.07;2.00;;;30.60;97.70;;;;;;5059089;28;20652;-79
2022/10/03 09:53:24;;;;;;;2.87;1.20;;;31.10;95.30;;;;;;5087638;28;20607;-79
2022/10/03 09:56:23;;;;;;;5.90;1.53;;;31.50;94.80;;;;;;5050825;28;21219;-77
2022/10/03 09:59:21;;;;;;;5.00;1.43;;;31.80;94.20;;;;;;5061338;28;20570;-80
2022/10/03 10:02:08;;;;;;;3.97;1.50;;;32.40;93.20;;;;;;5063387;28;20561;-79
2022/10/03 10:05:03;;;;;;;4.60;1.50;;;32.80;91.60;;;;;;5077284;28;20605;-80
2022/10/03 10:07:47;;;;;;;5.60;1.40;;;33.20;90.80;;;;;;5055553;28;20575;-80
2022/10/03 10:10:56;;;;;;;5.83;1.13;;;33.50;88.60;;;;;;5102874;28;20636;-79
2022/10/03 10:13:25;;;;;;;5.03;1.60;;;33.30;85.20;;;;;;5056539;28;20587;-80
2022/10/03 10:16:20;;;;;;;5.90;1.20;;;32.60;79.60;;;;;;5083486;28;20566;-80
2022/10/03 10:19:27;;;;;;;4.93;1.43;;;31.90;77.40;;;;;;5064190;28;20578;-82
2022/10/03 10:22:35;;;;;;;4.77;1.90;;;30.80;76.10;;;;;;5059547;28;20586;-81
2022/10/03 10:25:27;;;;;;;7.40;1.57;;;29.60;76.10;;;;;;5082167;28;20562;-81
2022/10/03 10:28:27;;;;;;;5.50;1.33;;;28.50;76.80;;;;;;5077690;28;20577;-82
2022/10/03 10:31:30;;;;;;;7.50;1.67;;;27.60;77.10;;;;;;5057997;28;20646;-82
2022/10/03 10:34:14;;;;;;;12.77;1.87;;;26.90;81.00;;;;;;5052695;28;20574;-82
2022/10/03 10:36:58;;;;;;;4.77;2.23;;;26.80;85.00;;;;;;5078355;28;20655;-81
2022/10/03 10:39:45;;;;;;;3.93;0.90;;;26.80;86.40;;;;;;5331868;22;21403;-80
2022/10/03 10:42:47;;;;;;;4.53;0.90;;;27.20;88.70;;;;;;5039846;28;20614;-84
2022/10/03 10:45:50;;;;;;;4.70;1.20;;;27.60;90.20;;;;;;5021453;28;20987;-87
2022/10/03 10:48:40;;;;;;;3.20;1.47;;;28.10;89.30;;;;;;5057333;28;20654;-86
2022/10/03 10:51:43;;;;;;;2.77;1.13;;;28.70;88.00;;;;;;5005303;28;20636;-87
2022/10/03 10:54:37;;;;;;;3.47;1.53;;;29.10;87.10;;;;;;5037275;28;20605;-82
2022/10/03 10:57:21;;;;;;;3.83;1.33;;;29.40;84.60;;;;;;5023485;28;20583;-82
2022/10/03 11:00:26;;;;;;;4.10;1.33;;;29.30;80.90;;;;;;5000631;28;20620;-86
2022/10/03 11:03:29;;;;;;;3.77;1.13;;;29.10;79.40;;;;;;5005740;28;20605;-86
2022/10/03 11:06:27;;;;;;;3.47;1.50;;;28.90;79.40;;;;;;5016727;28;20608;-86
2022/10/03 11:09:23;;;;;;;6.27;1.63;;;28.90;79.80;;;;;;4979463;28;20644;-86
2022/10/03 11:12:23;;;;;;;3.70;1.20;;;29.10;80.00;;;;;;5013402;28;20570;-86
2022/10/03 11:15:34;;;;;;;2.83;0.97;;;29.30;81.00;;;;;;4996944;28;20568;-86
2022/10/03 11:18:38;;;;;;;9.90;0.80;;;29.50;77.20;;;;;;5007617;28;20641;-86
2022/10/03 11:21:16;;;;;;;2.80;0.83;;;29.50;76.30;;;;;;4983066;28;20621;-86
2022/10/03 11:24:12;;;;;;;3.93;0.80;;;29.30;73.80;;;;;;5000233;28;21164;-86
2022/10/03 11:26:56;;;;;;;2.40;1.00;;;28.80;71.40;;;;;;4987226;28;20603;-86
2022/10/03 11:29:45;;;;;;;4.07;0.90;;;28.30;71.80;;;;;;4999933;28;20600;-86
2022/10/03 11:32:29;;;;;;;2.87;1.17;;;27.60;70.60;;;;;;5015322;28;20581;-86
2022/10/03 11:35:31;;;;;;;4.17;1.07;;;27.10;70.80;;;;;;5000920;28;20603;-86
2022/10/03 11:38:03;;;;;;;3.33;1.23;;;26.40;71.30;;;;;;5002446;28;20576;-86
2022/10/03 11:41:07;;;;;;;3.60;0.80;;;25.90;71.50;;;;;;5017523;28;20694;-85
2022/10/03 11:43:49;;;;;;;3.87;0.70;;;25.40;72.00;;;;;;4999247;28;20569;-85
2022/10/03 11:46:23;;;;;;;5.27;1.10;;;24.90;72.20;;;;;;5015709;28;20570;-85
2022/10/03 11:48:55;;;;;;;2.40;0.70;;;24.40;72.90;;;;;;5014652;28;21128;-85
2022/10/03 11:51:44;;;;;;;2.37;0.70;;;24.10;74.20;;;;;;4998000;28;21156;-85
2022/10/03 11:54:24;;;;;;;2.43;0.70;;;23.90;75.80;;;;;;5015727;28;20645;-85
2022/10/03 11:57:20;;;;;;;4.27;0.80;;;23.90;77.20;;;;;;5015793;28;20669;-85
2022/10/03 11:59:52;;;;;;;2.53;0.87;;;23.90;77.40;;;;;;4997692;28;20691;-85
2022/10/03 12:02:43;;;;;;;5.20;1.60;;;23.70;76.70;;;;;;4998667;28;20680;-85
2022/10/03 12:05:14;;;;;;;2.80;0.70;;;23.60;76.20;;;;;;4981288;28;20569;-85
2022/10/03 12:11:10;;;;;;;3.40;1.20;;;23.20;76.70;;;;;;4997293;28;21184;-86
2022/10/03 12:14:04;;;;;;;3.63;1.20;;;23.00;77.00;;;;;;5013994;28;20569;-86
2022/10/03 12:16:44;;;;;;;3.97;0.93;;;22.80;76.90;;;;;;4985533;28;21027;-85
2022/10/03 12:19:23;;;;;;;2.60;0.80;;;22.50;76.70;;;;;;4995689;28;20686;-80
2022/10/03 12:21:54;;;;;;;3.73;0.70;;;22.30;76.90;;;;;;5028600;28;20612;-80
2022/10/03 12:24:31;;;;;;;2.67;1.07;;;22.10;77.50;;;;;;5013288;28;20573;-80
2022/10/03 12:27:00;;;;;;;2.20;0.90;;;21.90;78.10;;;;;;5013360;28;20664;-80
2022/10/03 12:29:31;;;;;;;4.73;1.17;;;21.90;80.30;;;;;;5011374;28;20608;-80
2022/10/03 12:32:09;;;;;;;3.23;0.73;;;21.90;82.10;;;;;;5011930;28;20573;-80
2022/10/03 12:34:42;;;;;;;2.07;0.70;;;22.00;82.10;;;;;;5028386;28;20619;-80
2022/10/03 12:37:08;;;;;;;2.37;0.80;;;22.10;82.90;;;;;;4995580;28;20636;-80
2022/10/03 12:39:59;;;;;;;3.43;0.67;;;22.30;83.20;;;;;;4995077;28;20633;-80
2022/10/03 12:42:39;;;;;;;3.80;1.10;;;22.50;82.50;;;;;;5028005;28;20257;-80
2022/10/03 12:45:15;;;;;;;5.63;0.90;;;22.60;81.70;;;;;;4995349;28;20664;-80
2022/10/03 12:48:18;;;;;;;3.60;0.83;;;22.60;81.70;;;;;;5013401;28;20573;-80
2022/10/03 12:51:18;;;;;;;2.57;0.93;;;22.70;81.30;;;;;;5012522;28;20597;-80
2022/10/03 12:54:16;;;;;;;2.57;0.83;;;22.80;81.60;;;;;;5015717;28;20597;-79
2022/10/03 12:57:03;;;;;;;4.10;1.40;;;22.80;81.10;;;;;;5010276;28;20597;-80
2022/10/03 12:59:43;;;;;;;3.50;1.10;;;22.70;81.10;;;;;;5012259;28;20628;-80
2022/10/03 13:02:40;;;;;;;2.97;0.90;;;22.60;80.60;;;;;;5011407;28;20930;-80
2022/10/03 13:05:29;;;;;;;2.47;0.77;;;22.50;80.80;;;;;;5011488;28;20572;-80
2022/10/03 13:08:02;;;;;;;3.30;1.20;;;22.40;80.50;;;;;;5012533;28;20574;-79
2022/10/03 13:10:54;;;;;;;3.53;1.00;;;22.30;80.70;;;;;;5027629;28;20604;-80
2022/10/03 13:21:44;;;;;;;3.67;0.97;;;21.90;81.30;;;;;;5090550;23;20704;-76
2022/10/03 13:24:22;;;;;;;3.13;0.87;;;21.80;81.60;;;;;;5011031;28;20585;-76
2022/10/03 13:27:10;;;;;;;3.70;0.80;;;21.80;81.90;;;;;;5012168;28;20671;-76
2022/10/03 13:29:58;;;;;;;2.20;0.73;;;21.70;82.40;;;;;;5011813;28;20655;-76
2022/10/03 13:32:48;;;;;;;4.03;0.73;;;21.70;82.20;;;;;;5011974;28;20635;-76
2022/10/03 13:38:39;;;;;;;2.33;0.70;;;21.70;82.60;;;;;;5011318;28;20660;-77
2022/10/03 13:41:37;;;;;;;3.37;1.70;;;21.70;83.20;;;;;;5012988;28;21164;-77
2022/10/03 13:44:16;;;;;;;3.40;0.87;;;21.80;83.20;;;;;;5008218;28;20608;-77
2022/10/03 13:47:01;;;;;;;2.30;1.20;;;21.90;83.40;;;;;;5012097;28;20908;-76
2022/10/03 13:49:34;;;;;;;4.80;1.33;;;21.90;83.10;;;;;;5011770;28;20613;-76
2022/10/03 13:52:09;;;;;;;3.53;1.60;;;21.90;83.10;;;;;;5011720;28;20577;-76
2022/10/03 13:55:00;;;;;;;8.57;2.10;;;22.00;83.90;;;;;;5010748;28;20576;-76
2022/10/03 13:57:34;;;;;;;6.17;2.80;;;21.90;83.30;;;;;;5011870;28;20643;-76
2022/10/03 14:00:03;;;;;;;7.93;5.57;;;22.00;83.10;;;;;;5011694;28;20616;-76
2022/10/03 14:02:45;;;;;;;11.03;6.80;;;22.00;83.00;;;;;;5011751;28;20571;-77
2022/10/03 14:06:04;;;;;;;9.70;5.13;;;21.90;82.80;;;;;;5011671;28;20569;-76
2022/10/03 14:08:58;;;;;;;7.33;4.50;;;21.90;82.90;;;;;;4951308;28;20667;-76
2022/10/03 14:11:38;;;;;;;11.20;3.73;;;22.00;82.70;;;;;;4936393;29;20623;-77
2022/10/03 14:14:26;;;;;;;5.60;2.17;;;22.00;82.60;;;;;;4998535;28;21166;-77
2022/10/03 14:16:56;;;;;;;5.90;3.10;;;22.00;82.60;;;;;;5019270;28;20569;-77
2022/10/03 14:19:31;;;;;;;6.83;3.50;;;22.00;82.80;;;;;;5011208;28;20585;-76
2022/10/03 14:22:05;;;;;;;7.47;3.87;;;21.90;82.40;;;;;;5011308;28;21136;-76
2022/10/03 14:24:51;;;;;;;7.23;2.90;;;21.90;82.40;;;;;;5010524;28;20589;-77
2022/10/03 14:27:36;;;;;;;3.03;1.63;;;21.90;82.20;;;;;;4972451;28;20592;-77
2022/10/03 14:30:15;;;;;;;9.17;6.63;;;21.80;82.20;;;;;;5012282;28;20628;-77
2022/10/03 14:32:52;;;;;;;14.53;11.60;;;21.70;81.90;;;;;;5011236;28;20569;-77
2022/10/03 14:35:24;;;;;;;11.20;8.87;;;21.60;81.60;;;;;;5012874;28;20991;-77
2022/10/03 14:38:56;;;;;;;8.53;5.20;;;21.60;81.70;;;;;;5012518;28;20968;-77
2022/10/03 14:41:19;;;;;;;4.40;1.93;;;21.50;81.70;;;;;;4979141;28;21054;-77
2022/10/03 14:43:53;;;;;;;4.47;1.97;;;21.50;82.00;;;;;;5015727;28;20576;-77
2022/10/03 14:46:24;;;;;;;4.97;1.93;;;21.50;82.00;;;;;;5014833;28;20580;-77
2022/10/03 14:48:55;;;;;;;3.87;1.80;;;21.60;82.10;;;;;;5014244;28;20931;-77
2022/10/03 14:51:38;;;;;;;3.47;1.60;;;21.60;82.20;;;;;;5015581;28;20605;-77